sensor_id;sensor_type;location;lat;lon;timestamp;pressure;altitude;pressure_sealevel;temperature;humidity
66021;BME280;52789;59.980;30.346;2023-01-27T00:02:14;101734.25;;;0.06;97.20
66021;BME280;52789;59.980;30.346;2023-01-27T00:04:40;101756.94;;;0.24;96.58
66021;BME280;52789;59.980;30.346;2023-01-27T00:07:05;101768.19;;;0.26;95.88
66021;BME280;52789;59.980;30.346;2023-01-27T00:09:31;101757.09;;;0.21;95.86
66021;BME280;52789;59.980;30.346;2023-01-27T00:11:56;101760.16;;;0.12;95.82
66021;BME280;52789;59.980;30.346;2023-01-27T00:14:40;101764.69;;;0.09;95.90
66021;BME280;52789;59.980;30.346;2023-01-27T00:17:05;101755.19;;;0.06;96.44
66021;BME280;52789;59.980;30.346;2023-01-27T00:19:31;101748.66;;;-0.04;96.34
66021;BME280;52789;59.980;30.346;2023-01-27T00:21:56;101754.56;;;0.01;96.71
66021;BME280;52789;59.980;30.346;2023-01-27T00:24:40;101760.28;;;0.09;96.09
66021;BME280;52789;59.980;30.346;2023-01-27T00:27:08;101778.78;;;0.06;94.76
66021;BME280;52789;59.980;30.346;2023-01-27T00:29:37;101760.56;;;0.03;95.52
66021;BME280;52789;59.980;30.346;2023-01-27T00:32:04;101767.31;;;0.09;95.71
66021;BME280;52789;59.980;30.346;2023-01-27T00:34:48;101757.03;;;0.04;95.47
66021;BME280;52789;59.980;30.346;2023-01-27T00:37:13;101747.09;;;-0.08;96.06
66021;BME280;52789;59.980;30.346;2023-01-27T00:39:40;101756.94;;;-0.13;95.75
66021;BME280;52789;59.980;30.346;2023-01-27T00:42:06;101775.28;;;-0.13;95.62
66021;BME280;52789;59.980;30.346;2023-01-27T00:44:32;101775.28;;;-0.13;96.41
66021;BME280;52789;59.980;30.346;2023-01-27T00:46:57;101776.06;;;-0.11;96.60
66021;BME280;52789;59.980;30.346;2023-01-27T00:49:22;101784.75;;;-0.11;96.78
66021;BME280;52789;59.980;30.346;2023-01-27T00:51:49;101789.84;;;-0.08;97.13
66021;BME280;52789;59.980;30.346;2023-01-27T00:54:15;101787.75;;;0.01;96.91
66021;BME280;52789;59.980;30.346;2023-01-27T00:56:41;101783.09;;;0.07;96.39
66021;BME280;52789;59.980;30.346;2023-01-27T00:59:06;101790.94;;;0.07;95.97
66021;BME280;52789;59.980;30.346;2023-01-27T01:01:33;101797.88;;;0.08;95.72
66021;BME280;52789;59.980;30.346;2023-01-27T01:03:59;101810.84;;;0.11;95.19
66021;BME280;52789;59.980;30.346;2023-01-27T01:06:25;101806.88;;;0.03;95.53
66021;BME280;52789;59.980;30.346;2023-01-27T01:08:51;101807.88;;;0.00;95.52
66021;BME280;52789;59.980;30.346;2023-01-27T01:11:19;101815.75;;;-0.02;94.28
66021;BME280;52789;59.980;30.346;2023-01-27T01:13:45;101817.59;;;-0.04;94.96
66021;BME280;52789;59.980;30.346;2023-01-27T01:16:19;101799.13;;;-0.19;93.96
66021;BME280;52789;59.980;30.346;2023-01-27T01:18:45;101815.47;;;-0.14;94.42
66021;BME280;52789;59.980;30.346;2023-01-27T01:21:12;101822.53;;;-0.16;94.71
66021;BME280;52789;59.980;30.346;2023-01-27T01:23:40;101821.63;;;-0.15;94.67
66021;BME280;52789;59.980;30.346;2023-01-27T01:26:06;101816.94;;;-0.27;94.21
66021;BME280;52789;59.980;30.346;2023-01-27T01:28:32;101829.44;;;-0.34;94.65
66021;BME280;52789;59.980;30.346;2023-01-27T01:31:09;101838.25;;;-0.37;94.71
66021;BME280;52789;59.980;30.346;2023-01-27T01:33:35;101836.06;;;-0.46;94.19
66021;BME280;52789;59.980;30.346;2023-01-27T01:36:09;101846.66;;;-0.49;94.61
66021;BME280;52789;59.980;30.346;2023-01-27T01:38:35;101840.06;;;-0.57;95.34
66021;BME280;52789;59.980;30.346;2023-01-27T01:41:01;101849.00;;;-0.63;95.64
66021;BME280;52789;59.980;30.346;2023-01-27T01:43:27;101842.31;;;-0.70;95.99
66021;BME280;52789;59.980;30.346;2023-01-27T01:45:57;101841.81;;;-0.78;96.06
66021;BME280;52789;59.980;30.346;2023-01-27T01:51:11;101862.19;;;-0.86;97.80
66021;BME280;52789;59.980;30.346;2023-01-27T01:53:44;101864.84;;;-0.88;97.11
66021;BME280;52789;59.980;30.346;2023-01-27T01:56:17;101867.31;;;-0.83;97.81
66021;BME280;52789;59.980;30.346;2023-01-27T01:58:45;101856.16;;;-0.88;97.64
66021;BME280;52789;59.980;30.346;2023-01-27T02:01:13;101850.84;;;-0.87;97.66
66021;BME280;52789;59.980;30.346;2023-01-27T02:03:42;101852.31;;;-0.80;98.27
66021;BME280;52789;59.980;30.346;2023-01-27T02:06:10;101864.69;;;-0.63;98.15
66021;BME280;52789;59.980;30.346;2023-01-27T02:08:39;101867.72;;;-0.52;97.84
66021;BME280;52789;59.980;30.346;2023-01-27T02:11:07;101866.53;;;-0.45;97.69
66021;BME280;52789;59.980;30.346;2023-01-27T02:13:33;101868.97;;;-0.40;97.40
66021;BME280;52789;59.980;30.346;2023-01-27T02:15:58;101842.06;;;-0.64;96.27
66021;BME280;52789;59.980;30.346;2023-01-27T02:18:25;101891.94;;;-0.47;95.98
66021;BME280;52789;59.980;30.346;2023-01-27T02:20:52;101882.78;;;-0.57;96.21
66021;BME280;52789;59.980;30.346;2023-01-27T02:26:14;101893.28;;;-0.58;96.34
66021;BME280;52789;59.980;30.346;2023-01-27T02:28:41;101887.19;;;-0.59;95.64
66021;BME280;52789;59.980;30.346;2023-01-27T02:31:06;101888.78;;;-0.55;96.35
66021;BME280;52789;59.980;30.346;2023-01-27T02:33:32;101886.25;;;-0.56;96.27
66021;BME280;52789;59.980;30.346;2023-01-27T02:36:02;101899.25;;;-0.55;96.68
66021;BME280;52789;59.980;30.346;2023-01-27T02:38:34;101897.00;;;-0.64;96.13
66021;BME280;52789;59.980;30.346;2023-01-27T02:41:08;101884.31;;;-0.73;96.06
66021;BME280;52789;59.980;30.346;2023-01-27T02:43:36;101891.75;;;-0.84;96.31
66021;BME280;52789;59.980;30.346;2023-01-27T02:46:01;101914.59;;;-0.89;97.61
66021;BME280;52789;59.980;30.346;2023-01-27T02:48:27;101905.25;;;-0.95;98.03
66021;BME280;52789;59.980;30.346;2023-01-27T02:50:52;101908.38;;;-0.87;98.06
66021;BME280;52789;59.980;30.346;2023-01-27T02:53:18;101911.50;;;-0.77;97.66
66021;BME280;52789;59.980;30.346;2023-01-27T02:55:43;101910.66;;;-0.78;97.54
66021;BME280;52789;59.980;30.346;2023-01-27T02:58:09;101911.31;;;-0.73;97.10
66021;BME280;52789;59.980;30.346;2023-01-27T03:00:34;101917.41;;;-0.72;96.94
66021;BME280;52789;59.980;30.346;2023-01-27T03:03:00;101921.06;;;-0.76;96.91
66021;BME280;52789;59.980;30.346;2023-01-27T03:05:26;101929.09;;;-0.81;97.48
66021;BME280;52789;59.980;30.346;2023-01-27T03:07:52;101943.09;;;-0.82;97.99
66021;BME280;52789;59.980;30.346;2023-01-27T03:10:17;101949.91;;;-0.78;97.58
66021;BME280;52789;59.980;30.346;2023-01-27T03:12:43;101924.97;;;-0.86;97.82
66021;BME280;52789;59.980;30.346;2023-01-27T03:15:09;101952.44;;;-0.76;97.06
66021;BME280;52789;59.980;30.346;2023-01-27T03:17:53;101895.34;;;-1.09;97.55
66021;BME280;52789;59.980;30.346;2023-01-27T03:21:01;101933.16;;;-0.96;97.16
66021;BME280;52789;59.980;30.346;2023-01-27T03:23:27;101935.47;;;-1.10;97.45
66021;BME280;52789;59.980;30.346;2023-01-27T03:25:52;101928.06;;;-1.22;98.13
66021;BME280;52789;59.980;30.346;2023-01-27T03:28:18;101943.53;;;-1.16;98.24
66021;BME280;52789;59.980;30.346;2023-01-27T03:30:43;101932.44;;;-1.22;98.04
66021;BME280;52789;59.980;30.346;2023-01-27T03:33:09;101939.00;;;-1.11;98.45
66021;BME280;52789;59.980;30.346;2023-01-27T03:35:36;101935.59;;;-1.13;98.89
66021;BME280;52789;59.980;30.346;2023-01-27T03:38:14;101943.31;;;-1.10;98.43
66021;BME280;52789;59.980;30.346;2023-01-27T03:40:58;101940.75;;;-1.11;98.22
66021;BME280;52789;59.980;30.346;2023-01-27T03:43:43;101959.63;;;-1.27;98.65
66021;BME280;52789;59.980;30.346;2023-01-27T03:46:28;101954.88;;;-1.39;99.35
66021;BME280;52789;59.980;30.346;2023-01-27T03:48:54;101965.50;;;-1.43;99.67
66021;BME280;52789;59.980;30.346;2023-01-27T03:51:22;101949.91;;;-1.46;100.00
66021;BME280;52789;59.980;30.346;2023-01-27T03:53:49;101963.31;;;-1.32;99.44
66021;BME280;52789;59.980;30.346;2023-01-27T03:56:16;101964.22;;;-1.33;99.76
66021;BME280;52789;59.980;30.346;2023-01-27T03:58:42;101957.97;;;-1.29;100.00
66021;BME280;52789;59.980;30.346;2023-01-27T04:01:13;101966.03;;;-1.12;100.00
66021;BME280;52789;59.980;30.346;2023-01-27T04:03:40;101969.09;;;-1.01;100.00
66021;BME280;52789;59.980;30.346;2023-01-27T04:06:27;101974.03;;;-0.93;99.18
66021;BME280;52789;59.980;30.346;2023-01-27T04:09:12;101932.44;;;-1.22;99.05
66021;BME280;52789;59.980;30.346;2023-01-27T04:11:41;101991.34;;;-0.90;98.54
66021;BME280;52789;59.980;30.346;2023-01-27T04:14:35;101986.81;;;-0.85;98.25
66021;BME280;52789;59.980;30.346;2023-01-27T04:17:10;101987.66;;;-0.85;97.52
66021;BME280;52789;59.980;30.346;2023-01-27T04:19:36;101985.97;;;-0.86;97.55
66021;BME280;52789;59.980;30.346;2023-01-27T04:22:02;102003.19;;;-0.80;96.92
66021;BME280;52789;59.980;30.346;2023-01-27T04:24:28;102001.47;;;-0.81;97.33
66021;BME280;52789;59.980;30.346;2023-01-27T04:26:59;101994.75;;;-0.88;96.96
66021;BME280;52789;59.980;30.346;2023-01-27T04:29:27;101997.63;;;-0.95;96.77
66021;BME280;52789;59.980;30.346;2023-01-27T04:31:54;101995.34;;;-1.04;96.92
66021;BME280;52789;59.980;30.346;2023-01-27T04:34:20;102005.03;;;-1.06;97.38
66021;BME280;52789;59.980;30.346;2023-01-27T04:36:46;102005.09;;;-1.07;97.87
66021;BME280;52789;59.980;30.346;2023-01-27T04:39:14;102010.56;;;-1.13;98.12
66021;BME280;52789;59.980;30.346;2023-01-27T04:41:42;102009.91;;;-1.20;98.58
66021;BME280;52789;59.980;30.346;2023-01-27T04:44:08;102014.22;;;-1.19;99.48
66021;BME280;52789;59.980;30.346;2023-01-27T04:46:38;102016.63;;;-1.13;100.00
66021;BME280;52789;59.980;30.346;2023-01-27T04:49:03;102024.78;;;-0.99;99.98
66021;BME280;52789;59.980;30.346;2023-01-27T04:51:31;101992.00;;;-1.07;99.63
66021;BME280;52789;59.980;30.346;2023-01-27T04:53:58;102008.88;;;-0.93;98.59
66021;BME280;52789;59.980;30.346;2023-01-27T04:56:27;102017.38;;;-0.87;97.93
66021;BME280;52789;59.980;30.346;2023-01-27T04:58:54;102019.31;;;-0.93;97.62
66021;BME280;52789;59.980;30.346;2023-01-27T05:01:22;102004.78;;;-1.23;97.54
66021;BME280;52789;59.980;30.346;2023-01-27T05:03:47;102037.53;;;-1.13;97.54
66021;BME280;52789;59.980;30.346;2023-01-27T05:06:13;102039.72;;;-1.26;97.29
66021;BME280;52789;59.980;30.346;2023-01-27T05:08:41;102055.34;;;-1.24;97.82
66021;BME280;52789;59.980;30.346;2023-01-27T05:11:07;102050.13;;;-1.24;98.78
66021;BME280;52789;59.980;30.346;2023-01-27T05:13:33;102039.69;;;-1.24;98.01
66021;BME280;52789;59.980;30.346;2023-01-27T05:18:37;102039.44;;;-1.18;97.59
66021;BME280;52789;59.980;30.346;2023-01-27T05:21:04;102050.50;;;-1.10;97.69
66021;BME280;52789;59.980;30.346;2023-01-27T05:23:30;102054.94;;;-1.12;96.88
66021;BME280;52789;59.980;30.346;2023-01-27T05:26:09;102054.88;;;-1.10;96.28
66021;BME280;52789;59.980;30.346;2023-01-27T05:28:36;102053.00;;;-1.07;96.54
66021;BME280;52789;59.980;30.346;2023-01-27T05:31:05;102061.50;;;-1.02;96.11
66021;BME280;52789;59.980;30.346;2023-01-27T05:33:34;102063.34;;;-1.04;96.89
66021;BME280;52789;59.980;30.346;2023-01-27T05:36:01;102076.25;;;-0.99;96.85
66021;BME280;52789;59.980;30.346;2023-01-27T05:38:27;102066.63;;;-0.99;96.91
66021;BME280;52789;59.980;30.346;2023-01-27T05:40:55;102087.31;;;-0.93;97.14
66021;BME280;52789;59.980;30.346;2023-01-27T05:43:24;102067.53;;;-1.00;96.79
66021;BME280;52789;59.980;30.346;2023-01-27T05:45:52;102088.81;;;-0.85;96.75
66021;BME280;52789;59.980;30.346;2023-01-27T05:48:23;102089.72;;;-0.86;96.52
66021;BME280;52789;59.980;30.346;2023-01-27T05:50:57;102099.38;;;-0.88;96.23
66021;BME280;52789;59.980;30.346;2023-01-27T05:53:26;102083.22;;;-1.00;94.79
66021;BME280;52789;59.980;30.346;2023-01-27T05:55:52;102055.34;;;-1.24;94.71
66021;BME280;52789;59.980;30.346;2023-01-27T05:58:23;102105.50;;;-1.13;95.93
66021;BME280;52789;59.980;30.346;2023-01-27T06:00:49;102099.75;;;-1.22;97.20
66021;BME280;52789;59.980;30.346;2023-01-27T06:03:15;102104.56;;;-1.10;96.92
66021;BME280;52789;59.980;30.346;2023-01-27T06:05:54;102103.69;;;-1.11;96.09
66021;BME280;52789;59.980;30.346;2023-01-27T06:08:24;102112.34;;;-1.09;95.65
66021;BME280;52789;59.980;30.346;2023-01-27T06:11:16;102114.84;;;-1.06;95.39
66021;BME280;52789;59.980;30.346;2023-01-27T06:13:44;102128.88;;;-1.08;94.99
66021;BME280;52789;59.980;30.346;2023-01-27T06:16:12;102126.31;;;-1.10;95.64
66021;BME280;52789;59.980;30.346;2023-01-27T06:18:38;102130.03;;;-1.17;96.12
66021;BME280;52789;59.980;30.346;2023-01-27T06:21:06;102120.03;;;-1.29;95.82
66021;BME280;52789;59.980;30.346;2023-01-27T06:23:32;102132.69;;;-1.18;96.89
66021;BME280;52789;59.980;30.346;2023-01-27T06:26:03;102128.19;;;-1.13;96.96
66021;BME280;52789;59.980;30.346;2023-01-27T06:28:29;102143.72;;;-1.09;96.39
66021;BME280;52789;59.980;30.346;2023-01-27T06:30:55;102142.84;;;-1.09;96.01
66021;BME280;52789;59.980;30.346;2023-01-27T06:33:21;102144.28;;;-1.01;95.81
66021;BME280;52789;59.980;30.346;2023-01-27T06:35:47;102147.00;;;-1.04;96.11
66021;BME280;52789;59.980;30.346;2023-01-27T06:38:13;102144.28;;;-1.01;95.78
66021;BME280;52789;59.980;30.346;2023-01-27T06:40:40;102149.63;;;-1.04;95.79
66021;BME280;52789;59.980;30.346;2023-01-27T06:43:12;102154.69;;;-0.99;96.17
66021;BME280;52789;59.980;30.346;2023-01-27T06:45:41;102160.94;;;-1.03;96.24
66021;BME280;52789;59.980;30.346;2023-01-27T06:48:06;102168.03;;;-1.07;95.42
66021;BME280;52789;59.980;30.346;2023-01-27T06:50:32;102162.91;;;-1.10;96.51
66021;BME280;52789;59.980;30.346;2023-01-27T06:53:03;102173.28;;;-1.07;96.12
66021;BME280;52789;59.980;30.346;2023-01-27T06:55:29;102169.75;;;-1.06;96.56
66021;BME280;52789;59.980;30.346;2023-01-27T06:57:55;102180.94;;;-1.02;96.54
66021;BME280;52789;59.980;30.346;2023-01-27T07:00:21;102177.38;;;-1.00;96.54
66021;BME280;52789;59.980;30.346;2023-01-27T07:02:47;102179.88;;;-0.97;95.40
66021;BME280;52789;59.980;30.346;2023-01-27T07:05:13;102186.91;;;-0.99;95.17
66021;BME280;52789;59.980;30.346;2023-01-27T07:07:44;102192.38;;;-1.05;95.29
66021;BME280;52789;59.980;30.346;2023-01-27T07:10:12;102195.88;;;-1.06;94.77
66021;BME280;52789;59.980;30.346;2023-01-27T07:12:39;102184.84;;;-1.14;95.34
66021;BME280;52789;59.980;30.346;2023-01-27T07:15:08;102185.66;;;-1.12;95.52
66021;BME280;52789;59.980;30.346;2023-01-27T07:17:38;102198.50;;;-1.06;94.91
66021;BME280;52789;59.980;30.346;2023-01-27T07:20:05;102212.59;;;-1.10;95.50
66021;BME280;52789;59.980;30.346;2023-01-27T07:22:32;102196.50;;;-1.24;95.33
66021;BME280;52789;59.980;30.346;2023-01-27T07:24:58;102183.03;;;-1.37;95.07
66021;BME280;52789;59.980;30.346;2023-01-27T07:27:24;102211.56;;;-1.31;94.39
66021;BME280;52789;59.980;30.346;2023-01-27T07:29:50;102207.38;;;-1.36;95.30
66021;BME280;52789;59.980;30.346;2023-01-27T07:32:16;102223.19;;;-1.39;94.40
66021;BME280;52789;59.980;30.346;2023-01-27T07:34:46;102207.78;;;-1.48;95.38
66021;BME280;52789;59.980;30.346;2023-01-27T07:37:14;102199.94;;;-1.48;95.45
66021;BME280;52789;59.980;30.346;2023-01-27T07:39:40;102212.03;;;-1.44;95.71
66021;BME280;52789;59.980;30.346;2023-01-27T07:42:18;102212.41;;;-1.30;95.86
66021;BME280;52789;59.980;30.346;2023-01-27T07:44:46;102223.34;;;-1.19;96.47
66021;BME280;52789;59.980;30.346;2023-01-27T07:47:11;102235.13;;;-1.06;96.49
66021;BME280;52789;59.980;30.346;2023-01-27T07:49:44;102241.94;;;-1.02;96.09
66021;BME280;52789;59.980;30.346;2023-01-27T07:52:11;102235.06;;;-1.04;95.97
66021;BME280;52789;59.980;30.346;2023-01-27T07:54:36;102242.97;;;-1.06;96.22
66021;BME280;52789;59.980;30.346;2023-01-27T07:57:02;102244.44;;;-0.99;95.53
66021;BME280;52789;59.980;30.346;2023-01-27T07:59:30;102221.44;;;-1.14;95.62
66021;BME280;52789;59.980;30.346;2023-01-27T08:01:59;102248.19;;;-1.06;95.28
66021;BME280;52789;59.980;30.346;2023-01-27T08:04:24;102231.97;;;-1.17;95.12
66021;BME280;52789;59.980;30.346;2023-01-27T08:06:50;102263.22;;;-1.12;95.25
66021;BME280;52789;59.980;30.346;2023-01-27T08:09:16;102235.78;;;-1.26;96.26
66021;BME280;52789;59.980;30.346;2023-01-27T08:11:41;102251.13;;;-1.15;96.11
66021;BME280;52789;59.980;30.346;2023-01-27T08:14:07;102248.53;;;-1.16;95.99
66021;BME280;52789;59.980;30.346;2023-01-27T08:16:33;102253.72;;;-1.15;94.70
66021;BME280;52789;59.980;30.346;2023-01-27T08:18:58;102260.00;;;-1.20;94.91
66021;BME280;52789;59.980;30.346;2023-01-27T08:21:24;102263.06;;;-1.08;95.46
66021;BME280;52789;59.980;30.346;2023-01-27T08:23:52;102261.19;;;-1.04;94.82
66021;BME280;52789;59.980;30.346;2023-01-27T08:26:39;102246.59;;;-1.10;94.86
66021;BME280;52789;59.980;30.346;2023-01-27T08:29:14;102236.13;;;-1.10;94.52
66021;BME280;52789;59.980;30.346;2023-01-27T08:31:40;102275.50;;;-0.89;94.25
66021;BME280;52789;59.980;30.346;2023-01-27T08:34:06;102284.25;;;-0.90;93.75
66021;BME280;52789;59.980;30.346;2023-01-27T08:36:31;102276.63;;;-0.97;93.67
66021;BME280;52789;59.980;30.346;2023-01-27T08:38:57;102291.31;;;-0.93;93.65
66021;BME280;52789;59.980;30.346;2023-01-27T08:41:26;102294.94;;;-0.97;93.77
66021;BME280;52789;59.980;30.346;2023-01-27T08:43:53;102295.16;;;-1.03;94.07
66021;BME280;52789;59.980;30.346;2023-01-27T08:46:19;102274.94;;;-1.24;94.02
66021;BME280;52789;59.980;30.346;2023-01-27T08:48:47;102302.50;;;-1.14;95.23
66021;BME280;52789;59.980;30.346;2023-01-27T08:51:19;102301.34;;;-1.05;95.10
66021;BME280;52789;59.980;30.346;2023-01-27T08:53:44;102309.72;;;-0.96;94.68
66021;BME280;52789;59.980;30.346;2023-01-27T08:56:12;102312.75;;;-1.08;94.28
66021;BME280;52789;59.980;30.346;2023-01-27T08:58:45;102301.06;;;-1.24;94.56
66021;BME280;52789;59.980;30.346;2023-01-27T09:01:13;102308.75;;;-1.19;94.88
66021;BME280;52789;59.980;30.346;2023-01-27T09:03:45;102314.56;;;-1.10;94.38
66021;BME280;52789;59.980;30.346;2023-01-27T09:06:14;102313.75;;;-1.12;94.58
66021;BME280;52789;59.980;30.346;2023-01-27T09:08:48;102305.13;;;-1.14;94.16
66021;BME280;52789;59.980;30.346;2023-01-27T09:11:34;102294.72;;;-1.15;94.56
66021;BME280;52789;59.980;30.346;2023-01-27T09:14:01;102310.41;;;-1.17;94.17
66021;BME280;52789;59.980;30.346;2023-01-27T09:19:23;102304.09;;;-1.10;95.04
66021;BME280;52789;59.980;30.346;2023-01-27T09:21:49;102299.63;;;-1.06;94.69
66021;BME280;52789;59.980;30.346;2023-01-27T09:24:15;102302.09;;;-1.02;94.87
66021;BME280;52789;59.980;30.346;2023-01-27T09:26:43;102296.16;;;-1.07;94.51
66021;BME280;52789;59.980;30.346;2023-01-27T09:29:15;102314.56;;;-1.10;93.82
66021;BME280;52789;59.980;30.346;2023-01-27T09:31:41;102319.84;;;-1.11;93.96
66021;BME280;52789;59.980;30.346;2023-01-27T09:34:10;102311.19;;;-1.13;94.23
66021;BME280;52789;59.980;30.346;2023-01-27T09:36:41;102295.75;;;-1.21;94.39
66021;BME280;52789;59.980;30.346;2023-01-27T09:39:10;102312.84;;;-1.11;94.24
66021;BME280;52789;59.980;30.346;2023-01-27T09:41:50;102319.78;;;-1.10;94.20
66021;BME280;52789;59.980;30.346;2023-01-27T09:49:45;102345.44;;;-0.95;94.35
66021;BME280;52789;59.980;30.346;2023-01-27T09:52:47;102336.22;;;-1.06;93.75
66021;BME280;52789;59.980;30.346;2023-01-27T10:03:18;102340.41;;;-1.01;95.78
66021;BME280;52789;59.980;30.346;2023-01-27T10:11:35;102330.94;;;-0.78;95.25
66021;BME280;52789;59.980;30.346;2023-01-27T10:14:09;102332.44;;;-0.71;94.49
66021;BME280;52789;59.980;30.346;2023-01-27T10:27:22;102328.97;;;-0.98;94.39
66021;BME280;52789;59.980;30.346;2023-01-27T10:30:12;102332.50;;;-0.99;94.19
66021;BME280;52789;59.980;30.346;2023-01-27T10:33:34;102327.91;;;-1.19;94.31
66021;BME280;52789;59.980;30.346;2023-01-27T10:36:05;102337.06;;;-1.32;94.84
66021;BME280;52789;59.980;30.346;2023-01-27T10:38:35;102348.41;;;-1.33;95.88
66021;BME280;52789;59.980;30.346;2023-01-27T10:41:26;102342.88;;;-1.24;96.35
66021;BME280;52789;59.980;30.346;2023-01-27T10:43:57;102348.13;;;-1.24;95.90
66021;BME280;52789;59.980;30.346;2023-01-27T10:46:38;102351.16;;;-1.10;95.75
66021;BME280;52789;59.980;30.346;2023-01-27T10:49:28;102336.53;;;-1.15;94.83
66021;BME280;52789;59.980;30.346;2023-01-27T10:52:15;102354.47;;;-1.05;95.24
66021;BME280;52789;59.980;30.346;2023-01-27T10:54:49;102357.91;;;-1.03;94.10
66021;BME280;52789;59.980;30.346;2023-01-27T10:57:46;102330.25;;;-1.10;94.35
66021;BME280;52789;59.980;30.346;2023-01-27T11:00:35;102350.44;;;-0.88;93.49
66021;BME280;52789;59.980;30.346;2023-01-27T11:03:11;102351.28;;;-0.86;93.90
66021;BME280;52789;59.980;30.346;2023-01-27T11:05:42;102347.94;;;-0.91;93.49
66021;BME280;52789;59.980;30.346;2023-01-27T11:08:14;102349.81;;;-0.95;94.30
66021;BME280;52789;59.980;30.346;2023-01-27T11:10:45;102343.31;;;-1.10;94.56
66021;BME280;52789;59.980;30.346;2023-01-27T11:13:31;102346.84;;;-1.11;94.74
66021;BME280;52789;59.980;30.346;2023-01-27T11:15:58;102347.84;;;-1.15;94.24
66021;BME280;52789;59.980;30.346;2023-01-27T11:18:35;102360.28;;;-1.23;95.21
66021;BME280;52789;59.980;30.346;2023-01-27T11:21:41;102355.75;;;-1.18;95.05
66021;BME280;52789;59.980;30.346;2023-01-27T11:24:18;102344.59;;;-1.23;94.97
66021;BME280;52789;59.980;30.346;2023-01-27T11:26:52;102351.44;;;-1.19;94.15
66021;BME280;52789;59.980;30.346;2023-01-27T11:29:44;102370.47;;;-1.14;94.94
66021;BME280;52789;59.980;30.346;2023-01-27T11:32:29;102368.03;;;-1.20;94.01
66021;BME280;52789;59.980;30.346;2023-01-27T11:35:20;102367.13;;;-1.19;94.12
66021;BME280;52789;59.980;30.346;2023-01-27T11:38:15;102378.38;;;-1.17;94.74
66021;BME280;52789;59.980;30.346;2023-01-27T11:40:44;102376.81;;;-1.22;94.32
66021;BME280;52789;59.980;30.346;2023-01-27T11:43:26;102376.78;;;-1.21;94.53
66021;BME280;52789;59.980;30.346;2023-01-27T11:46:10;102376.63;;;-1.16;94.46
66021;BME280;52789;59.980;30.346;2023-01-27T11:48:44;102387.88;;;-1.13;94.29
66021;BME280;52789;59.980;30.346;2023-01-27T11:51:23;102389.00;;;-1.21;94.26
66021;BME280;52789;59.980;30.346;2023-01-27T11:54:05;102379.38;;;-1.21;94.47
66021;BME280;52789;59.980;30.346;2023-01-27T11:56:35;102383.66;;;-1.18;94.80
66021;BME280;52789;59.980;30.346;2023-01-27T11:59:08;102389.75;;;-1.18;94.69
66021;BME280;52789;59.980;30.346;2023-01-27T12:01:51;102361.78;;;-1.42;95.02
66021;BME280;52789;59.980;30.346;2023-01-27T12:07:15;102399.06;;;-1.37;94.09
66021;BME280;52789;59.980;30.346;2023-01-27T12:09:48;102394.19;;;-1.49;94.87
66021;BME280;52789;59.980;30.346;2023-01-27T12:12:25;102399.69;;;-1.59;95.58
66021;BME280;52789;59.980;30.346;2023-01-27T12:15:03;102393.81;;;-1.65;96.58
66021;BME280;52789;59.980;30.346;2023-01-27T12:17:46;102389.16;;;-1.56;96.29
66021;BME280;52789;59.980;30.346;2023-01-27T12:20:39;102399.13;;;-1.39;96.13
66021;BME280;52789;59.980;30.346;2023-01-27T12:23:32;102405.06;;;-1.34;95.36
66021;BME280;52789;59.980;30.346;2023-01-27T12:26:13;102392.22;;;-1.41;94.45
66021;BME280;52789;59.980;30.346;2023-01-27T12:28:49;102400.78;;;-1.36;94.80
66021;BME280;52789;59.980;30.346;2023-01-27T12:31:30;102404.13;;;-1.31;94.89
66021;BME280;52789;59.980;30.346;2023-01-27T12:34:35;102406.56;;;-1.27;95.42
66021;BME280;52789;59.980;30.346;2023-01-27T12:37:06;102407.09;;;-1.43;95.47
66021;BME280;52789;59.980;30.346;2023-01-27T12:42:04;102406.63;;;-1.58;96.67
66021;BME280;52789;59.980;30.346;2023-01-27T12:44:40;102406.63;;;-1.58;96.71
66021;BME280;52789;59.980;30.346;2023-01-27T12:47:23;102414.28;;;-1.51;96.84
66021;BME280;52789;59.980;30.346;2023-01-27T12:50:18;102420.97;;;-1.41;96.97
66021;BME280;52789;59.980;30.346;2023-01-27T12:53:14;102422.34;;;-1.30;96.38
66021;BME280;52789;59.980;30.346;2023-01-27T12:55:53;102421.78;;;-1.39;95.70
66021;BME280;52789;59.980;30.346;2023-01-27T12:58:30;102420.41;;;-1.52;96.05
66021;BME280;52789;59.980;30.346;2023-01-27T13:00:58;102417.72;;;-1.49;95.33
66021;BME280;52789;59.980;30.346;2023-01-27T13:03:25;102418.53;;;-1.47;95.32
66021;BME280;52789;59.980;30.346;2023-01-27T13:05:57;102386.81;;;-1.65;94.86
66021;BME280;52789;59.980;30.346;2023-01-27T13:08:26;102414.56;;;-1.61;95.70
66021;BME280;52789;59.980;30.346;2023-01-27T13:11:26;102422.78;;;-1.74;96.12
66021;BME280;52789;59.980;30.346;2023-01-27T13:14:37;102418.13;;;-1.94;97.37
66021;BME280;52789;59.980;30.346;2023-01-27T13:17:03;102424.13;;;-1.91;98.33
66021;BME280;52789;59.980;30.346;2023-01-27T13:19:51;102425.53;;;-1.79;98.68
66021;BME280;52789;59.980;30.346;2023-01-27T13:23:08;102370.75;;;-2.11;97.68
66021;BME280;52789;59.980;30.346;2023-01-27T13:26:08;102417.69;;;-1.79;97.56
66021;BME280;52789;59.980;30.346;2023-01-27T13:29:12;102424.09;;;-1.89;97.47
66021;BME280;52789;59.980;30.346;2023-01-27T13:34:33;102428.91;;;-2.06;97.26
66021;BME280;52789;59.980;30.346;2023-01-27T13:40:42;102445.88;;;-1.90;97.65
66021;BME280;52789;59.980;30.346;2023-01-27T13:46:29;102450.09;;;-1.86;96.65
66021;BME280;52789;59.980;30.346;2023-01-27T13:48:58;102447.59;;;-1.89;96.15
66021;BME280;52789;59.980;30.346;2023-01-27T13:51:28;102452.97;;;-1.95;96.69
66021;BME280;52789;59.980;30.346;2023-01-27T13:53:59;102445.31;;;-2.01;96.21
66021;BME280;52789;59.980;30.346;2023-01-27T13:56:54;102448.41;;;-2.20;96.21
66021;BME280;52789;59.980;30.346;2023-01-27T13:59:46;102447.41;;;-2.15;97.30
66021;BME280;52789;59.980;30.346;2023-01-27T14:05:38;102436.25;;;-1.88;96.48